sensor_id;sensor_type;location;lat;lon;timestamp;temperature;humidity
51765;DHT22;37835;53.256;6.456;2023-08-08T00:01:00;13.70;99.90
51765;DHT22;37835;53.256;6.456;2023-08-08T00:03:26;13.60;99.90
51765;DHT22;37835;53.256;6.456;2023-08-08T00:05:52;13.60;99.90
51765;DHT22;37835;53.256;6.456;2023-08-08T00:08:18;13.60;99.90
51765;DHT22;37835;53.256;6.456;2023-08-08T00:10:43;13.60;99.90
51765;DHT22;37835;53.256;6.456;2023-08-08T00:13:09;13.60;99.90
51765;DHT22;37835;53.256;6.456;2023-08-08T00:15:34;13.60;99.90
51765;DHT22;37835;53.256;6.456;2023-08-08T00:18:00;13.60;99.90
51765;DHT22;37835;53.256;6.456;2023-08-08T00:20:26;13.60;99.90
51765;DHT22;37835;53.256;6.456;2023-08-08T00:22:51;13.60;99.90
51765;DHT22;37835;53.256;6.456;2023-08-08T00:25:17;13.20;99.90
51765;DHT22;37835;53.256;6.456;2023-08-08T00:27:43;13.50;99.90
51765;DHT22;37835;53.256;6.456;2023-08-08T00:30:11;13.50;99.90
51765;DHT22;37835;53.256;6.456;2023-08-08T00:32:37;13.50;99.90
51765;DHT22;37835;53.256;6.456;2023-08-08T00:35:03;13.50;99.90
51765;DHT22;37835;53.256;6.456;2023-08-08T00:37:28;13.50;99.90
51765;DHT22;37835;53.256;6.456;2023-08-08T00:39:54;13.50;99.90
51765;DHT22;37835;53.256;6.456;2023-08-08T00:42:19;13.40;99.90
51765;DHT22;37835;53.256;6.456;2023-08-08T00:44:45;13.40;99.90
51765;DHT22;37835;53.256;6.456;2023-08-08T00:47:11;13.40;99.90
51765;DHT22;37835;53.256;6.456;2023-08-08T00:49:37;13.40;99.90
51765;DHT22;37835;53.256;6.456;2023-08-08T00:52:03;13.30;99.90
51765;DHT22;37835;53.256;6.456;2023-08-08T00:54:29;13.30;99.90
51765;DHT22;37835;53.256;6.456;2023-08-08T00:56:55;13.30;99.90
51765;DHT22;37835;53.256;6.456;2023-08-08T00:59:21;13.20;99.90
51765;DHT22;37835;53.256;6.456;2023-08-08T01:01:48;13.20;99.90
51765;DHT22;37835;53.256;6.456;2023-08-08T01:04:13;13.20;99.90
51765;DHT22;37835;53.256;6.456;2023-08-08T01:06:47;13.20;99.90
51765;DHT22;37835;53.256;6.456;2023-08-08T01:09:37;13.10;99.90
51765;DHT22;37835;53.256;6.456;2023-08-08T01:12:06;13.10;99.90
51765;DHT22;37835;53.256;6.456;2023-08-08T01:14:34;13.10;99.90
51765;DHT22;37835;53.256;6.456;2023-08-08T01:17:01;13.00;99.90
51765;DHT22;37835;53.256;6.456;2023-08-08T01:19:29;13.00;99.90
51765;DHT22;37835;53.256;6.456;2023-08-08T01:22:01;13.00;99.90
51765;DHT22;37835;53.256;6.456;2023-08-08T01:24:27;13.00;99.90
51765;DHT22;37835;53.256;6.456;2023-08-08T01:26:56;13.00;99.90
51765;DHT22;37835;53.256;6.456;2023-08-08T01:29:21;13.00;99.90
51765;DHT22;37835;53.256;6.456;2023-08-08T01:31:47;13.00;99.90
51765;DHT22;37835;53.256;6.456;2023-08-08T01:34:13;13.00;99.90
51765;DHT22;37835;53.256;6.456;2023-08-08T01:37:09;12.90;99.90
51765;DHT22;37835;53.256;6.456;2023-08-08T01:39:38;12.90;99.90
51765;DHT22;37835;53.256;6.456;2023-08-08T01:42:05;12.90;99.90
51765;DHT22;37835;53.256;6.456;2023-08-08T01:44:31;12.80;99.90
51765;DHT22;37835;53.256;6.456;2023-08-08T01:46:58;12.80;99.90
51765;DHT22;37835;53.256;6.456;2023-08-08T01:49:24;12.80;99.90
51765;DHT22;37835;53.256;6.456;2023-08-08T01:51:49;12.80;99.90
51765;DHT22;37835;53.256;6.456;2023-08-08T01:54:16;12.90;99.90
51765;DHT22;37835;53.256;6.456;2023-08-08T01:56:41;12.80;99.90
51765;DHT22;37835;53.256;6.456;2023-08-08T01:59:07;12.90;99.90
51765;DHT22;37835;53.256;6.456;2023-08-08T02:01:32;12.90;99.90
51765;DHT22;37835;53.256;6.456;2023-08-08T02:03:58;12.90;99.90
51765;DHT22;37835;53.256;6.456;2023-08-08T02:06:24;13.00;99.90
51765;DHT22;37835;53.256;6.456;2023-08-08T02:08:49;13.00;99.90
51765;DHT22;37835;53.256;6.456;2023-08-08T02:11:15;13.00;99.90
51765;DHT22;37835;53.256;6.456;2023-08-08T02:13:40;13.00;99.90
51765;DHT22;37835;53.256;6.456;2023-08-08T02:16:06;13.10;99.90
51765;DHT22;37835;53.256;6.456;2023-08-08T02:18:31;13.10;99.90
51765;DHT22;37835;53.256;6.456;2023-08-08T02:20:57;13.10;99.90
51765;DHT22;37835;53.256;6.456;2023-08-08T02:23:22;13.10;99.90
51765;DHT22;37835;53.256;6.456;2023-08-08T02:25:48;13.10;99.90
51765;DHT22;37835;53.256;6.456;2023-08-08T02:28:14;13.20;99.90
51765;DHT22;37835;53.256;6.456;2023-08-08T02:30:39;13.20;99.90
51765;DHT22;37835;53.256;6.456;2023-08-08T02:33:05;13.20;99.90
51765;DHT22;37835;53.256;6.456;2023-08-08T02:35:30;13.30;99.90
51765;DHT22;37835;53.256;6.456;2023-08-08T02:37:56;13.20;99.90
51765;DHT22;37835;53.256;6.456;2023-08-08T02:40:22;13.20;99.90
51765;DHT22;37835;53.256;6.456;2023-08-08T02:42:52;13.20;99.90
51765;DHT22;37835;53.256;6.456;2023-08-08T02:45:17;13.20;99.90
51765;DHT22;37835;53.256;6.456;2023-08-08T02:47:43;13.20;99.90
51765;DHT22;37835;53.256;6.456;2023-08-08T02:50:09;13.30;99.90
51765;DHT22;37835;53.256;6.456;2023-08-08T02:52:34;13.30;99.90
51765;DHT22;37835;53.256;6.456;2023-08-08T02:55:00;13.20;99.90
51765;DHT22;37835;53.256;6.456;2023-08-08T02:57:27;13.20;99.90
51765;DHT22;37835;53.256;6.456;2023-08-08T02:59:53;13.20;99.90
51765;DHT22;37835;53.256;6.456;2023-08-08T03:02:18;13.20;99.90
51765;DHT22;37835;53.256;6.456;2023-08-08T03:04:44;13.20;99.90
51765;DHT22;37835;53.256;6.456;2023-08-08T03:07:09;13.20;99.90
51765;DHT22;37835;53.256;6.456;2023-08-08T03:09:35;13.20;99.90
51765;DHT22;37835;53.256;6.456;2023-08-08T03:12:01;13.10;99.90
51765;DHT22;37835;53.256;6.456;2023-08-08T03:14:27;13.10;99.90
51765;DHT22;37835;53.256;6.456;2023-08-08T03:16:52;13.10;99.90
51765;DHT22;37835;53.256;6.456;2023-08-08T03:19:18;13.10;99.90
51765;DHT22;37835;53.256;6.456;2023-08-08T03:21:43;13.00;99.90
51765;DHT22;37835;53.256;6.456;2023-08-08T03:24:09;13.00;99.90
51765;DHT22;37835;53.256;6.456;2023-08-08T03:26:34;13.00;99.90
51765;DHT22;37835;53.256;6.456;2023-08-08T03:29:00;13.00;99.90
51765;DHT22;37835;53.256;6.456;2023-08-08T03:31:25;13.00;99.90
51765;DHT22;37835;53.256;6.456;2023-08-08T03:33:52;13.00;99.90
51765;DHT22;37835;53.256;6.456;2023-08-08T03:36:18;13.00;99.90
51765;DHT22;37835;53.256;6.456;2023-08-08T03:38:43;13.00;99.90
51765;DHT22;37835;53.256;6.456;2023-08-08T03:41:11;13.00;99.90
51765;DHT22;37835;53.256;6.456;2023-08-08T03:43:38;13.00;99.90
51765;DHT22;37835;53.256;6.456;2023-08-08T03:46:04;13.00;99.90
51765;DHT22;37835;53.256;6.456;2023-08-08T03:48:29;13.00;99.90
51765;DHT22;37835;53.256;6.456;2023-08-08T03:50:55;13.00;99.90
51765;DHT22;37835;53.256;6.456;2023-08-08T03:53:20;13.00;99.90
51765;DHT22;37835;53.256;6.456;2023-08-08T03:55:46;12.90;99.90
51765;DHT22;37835;53.256;6.456;2023-08-08T03:58:11;12.90;99.90
51765;DHT22;37835;53.256;6.456;2023-08-08T04:00:37;12.90;99.90
51765;DHT22;37835;53.256;6.456;2023-08-08T04:03:04;12.90;99.90
51765;DHT22;37835;53.256;6.456;2023-08-08T04:05:30;12.90;99.90
51765;DHT22;37835;53.256;6.456;2023-08-08T04:07:55;12.80;99.90
51765;DHT22;37835;53.256;6.456;2023-08-08T04:10:21;12.90;99.90
51765;DHT22;37835;53.256;6.456;2023-08-08T04:12:47;12.80;99.90
51765;DHT22;37835;53.256;6.456;2023-08-08T04:15:12;12.80;99.90
51765;DHT22;37835;53.256;6.456;2023-08-08T04:17:38;12.70;99.90
51765;DHT22;37835;53.256;6.456;2023-08-08T04:20:04;12.70;99.90
51765;DHT22;37835;53.256;6.456;2023-08-08T04:22:31;12.70;99.90
51765;DHT22;37835;53.256;6.456;2023-08-08T04:24:57;12.70;99.90
51765;DHT22;37835;53.256;6.456;2023-08-08T04:27:22;12.70;99.90
51765;DHT22;37835;53.256;6.456;2023-08-08T04:29:48;12.70;99.90
51765;DHT22;37835;53.256;6.456;2023-08-08T04:32:14;12.70;99.90
51765;DHT22;37835;53.256;6.456;2023-08-08T04:34:39;12.70;99.90
51765;DHT22;37835;53.256;6.456;2023-08-08T04:37:05;12.70;99.90
51765;DHT22;37835;53.256;6.456;2023-08-08T04:39:30;12.70;99.90
51765;DHT22;37835;53.256;6.456;2023-08-08T04:41:56;12.70;99.90
51765;DHT22;37835;53.256;6.456;2023-08-08T04:44:22;12.80;99.90
51765;DHT22;37835;53.256;6.456;2023-08-08T04:46:47;12.80;99.90
51765;DHT22;37835;53.256;6.456;2023-08-08T04:49:13;12.80;99.90
51765;DHT22;37835;53.256;6.456;2023-08-08T04:51:38;12.90;99.90
51765;DHT22;37835;53.256;6.456;2023-08-08T04:54:04;12.90;99.90
51765;DHT22;37835;53.256;6.456;2023-08-08T04:56:30;13.00;99.90
51765;DHT22;37835;53.256;6.456;2023-08-08T04:58:55;13.00;99.90
51765;DHT22;37835;53.256;6.456;2023-08-08T05:01:21;13.10;99.90
51765;DHT22;37835;53.256;6.456;2023-08-08T05:03:47;13.10;99.90
51765;DHT22;37835;53.256;6.456;2023-08-08T05:06:13;13.20;99.90
51765;DHT22;37835;53.256;6.456;2023-08-08T05:08:39;13.20;99.90
51765;DHT22;37835;53.256;6.456;2023-08-08T05:11:04;13.30;99.90
51765;DHT22;37835;53.256;6.456;2023-08-08T05:13:30;13.40;99.90
51765;DHT22;37835;53.256;6.456;2023-08-08T05:15:55;13.40;99.90
51765;DHT22;37835;53.256;6.456;2023-08-08T05:18:21;13.40;99.90
51765;DHT22;37835;53.256;6.456;2023-08-08T05:20:46;13.50;99.90
51765;DHT22;37835;53.256;6.456;2023-08-08T05:23:12;13.60;99.90
51765;DHT22;37835;53.256;6.456;2023-08-08T05:25:38;13.60;99.90
51765;DHT22;37835;53.256;6.456;2023-08-08T05:28:03;13.70;99.90
51765;DHT22;37835;53.256;6.456;2023-08-08T05:30:29;13.70;99.90
51765;DHT22;37835;53.256;6.456;2023-08-08T05:32:54;13.80;99.90
51765;DHT22;37835;53.256;6.456;2023-08-08T05:35:20;13.80;99.90
51765;DHT22;37835;53.256;6.456;2023-08-08T05:37:46;13.90;99.90
51765;DHT22;37835;53.256;6.456;2023-08-08T05:40:11;13.90;99.90
51765;DHT22;37835;53.256;6.456;2023-08-08T05:42:38;13.90;99.90
51765;DHT22;37835;53.256;6.456;2023-08-08T05:45:04;14.00;99.90
51765;DHT22;37835;53.256;6.456;2023-08-08T05:47:30;14.00;99.90
51765;DHT22;37835;53.256;6.456;2023-08-08T05:49:55;14.00;99.90
51765;DHT22;37835;53.256;6.456;2023-08-08T05:52:21;14.10;99.90
51765;DHT22;37835;53.256;6.456;2023-08-08T05:54:47;14.10;99.90
51765;DHT22;37835;53.256;6.456;2023-08-08T05:57:12;14.10;99.90
51765;DHT22;37835;53.256;6.456;2023-08-08T05:59:38;14.20;99.90
51765;DHT22;37835;53.256;6.456;2023-08-08T06:02:04;14.20;99.90
51765;DHT22;37835;53.256;6.456;2023-08-08T06:04:29;14.30;99.90
51765;DHT22;37835;53.256;6.456;2023-08-08T06:06:55;14.40;99.90
51765;DHT22;37835;53.256;6.456;2023-08-08T06:09:20;14.40;99.90
51765;DHT22;37835;53.256;6.456;2023-08-08T06:11:46;14.50;99.90
51765;DHT22;37835;53.256;6.456;2023-08-08T06:14:12;14.50;99.90
51765;DHT22;37835;53.256;6.456;2023-08-08T06:16:38;14.60;99.90
51765;DHT22;37835;53.256;6.456;2023-08-08T06:19:03;14.70;99.90
51765;DHT22;37835;53.256;6.456;2023-08-08T06:21:29;14.80;99.90
51765;DHT22;37835;53.256;6.456;2023-08-08T06:23:55;14.80;99.90
51765;DHT22;37835;53.256;6.456;2023-08-08T06:26:21;14.90;99.90
51765;DHT22;37835;53.256;6.456;2023-08-08T06:28:47;15.00;99.90
51765;DHT22;37835;53.256;6.456;2023-08-08T06:31:13;15.10;99.90
51765;DHT22;37835;53.256;6.456;2023-08-08T06:33:39;15.20;99.90
51765;DHT22;37835;53.256;6.456;2023-08-08T06:36:05;15.20;99.90
51765;DHT22;37835;53.256;6.456;2023-08-08T06:38:31;15.30;99.90
51765;DHT22;37835;53.256;6.456;2023-08-08T06:41:03;15.30;99.90
51765;DHT22;37835;53.256;6.456;2023-08-08T06:43:29;15.40;99.90
51765;DHT22;37835;53.256;6.456;2023-08-08T06:45:56;15.40;99.90
51765;DHT22;37835;53.256;6.456;2023-08-08T06:48:22;15.50;99.90
51765;DHT22;37835;53.256;6.456;2023-08-08T06:50:47;15.50;99.90
51765;DHT22;37835;53.256;6.456;2023-08-08T06:53:13;15.60;99.90
51765;DHT22;37835;53.256;6.456;2023-08-08T06:55:39;15.70;99.90
51765;DHT22;37835;53.256;6.456;2023-08-08T06:58:04;15.70;99.90
51765;DHT22;37835;53.256;6.456;2023-08-08T07:00:30;15.80;99.90
51765;DHT22;37835;53.256;6.456;2023-08-08T07:02:55;15.80;99.90
51765;DHT22;37835;53.256;6.456;2023-08-08T07:05:21;15.90;99.90
51765;DHT22;37835;53.256;6.456;2023-08-08T07:07:51;15.90;99.90
51765;DHT22;37835;53.256;6.456;2023-08-08T07:10:17;16.00;99.90
51765;DHT22;37835;53.256;6.456;2023-08-08T07:12:42;16.00;99.90
51765;DHT22;37835;53.256;6.456;2023-08-08T07:15:08;16.00;99.90
51765;DHT22;37835;53.256;6.456;2023-08-08T07:17:34;16.10;99.90
51765;DHT22;37835;53.256;6.456;2023-08-08T07:20:00;16.10;99.90
51765;DHT22;37835;53.256;6.456;2023-08-08T07:22:25;16.20;99.90
51765;DHT22;37835;53.256;6.456;2023-08-08T07:24:51;16.20;99.90
51765;DHT22;37835;53.256;6.456;2023-08-08T07:27:16;16.30;99.90
51765;DHT22;37835;53.256;6.456;2023-08-08T07:29:42;16.30;99.90
51765;DHT22;37835;53.256;6.456;2023-08-08T07:32:08;16.40;99.90
51765;DHT22;37835;53.256;6.456;2023-08-08T07:34:34;16.50;99.90
51765;DHT22;37835;53.256;6.456;2023-08-08T07:36:59;16.50;99.90
51765;DHT22;37835;53.256;6.456;2023-08-08T07:39:25;16.50;99.90
51765;DHT22;37835;53.256;6.456;2023-08-08T07:41:51;16.60;99.90
51765;DHT22;37835;53.256;6.456;2023-08-08T07:44:17;16.60;99.90
51765;DHT22;37835;53.256;6.456;2023-08-08T07:46:42;16.60;99.90
51765;DHT22;37835;53.256;6.456;2023-08-08T07:49:08;16.60;99.90
51765;DHT22;37835;53.256;6.456;2023-08-08T07:51:35;16.60;99.90
51765;DHT22;37835;53.256;6.456;2023-08-08T07:54:01;16.60;99.90
51765;DHT22;37835;53.256;6.456;2023-08-08T07:56:26;16.50;99.90
51765;DHT22;37835;53.256;6.456;2023-08-08T07:58:52;16.60;99.90
51765;DHT22;37835;53.256;6.456;2023-08-08T08:01:18;16.60;99.90
51765;DHT22;37835;53.256;6.456;2023-08-08T08:03:44;16.60;99.90
51765;DHT22;37835;53.256;6.456;2023-08-08T08:06:10;16.70;99.90
51765;DHT22;37835;53.256;6.456;2023-08-08T08:08:36;16.70;99.90
51765;DHT22;37835;53.256;6.456;2023-08-08T08:11:02;16.60;99.90
51765;DHT22;37835;53.256;6.456;2023-08-08T08:13:28;16.70;99.90
51765;DHT22;37835;53.256;6.456;2023-08-08T08:15:53;16.70;99.90
51765;DHT22;37835;53.256;6.456;2023-08-08T08:18:19;16.70;99.90
51765;DHT22;37835;53.256;6.456;2023-08-08T08:20:46;16.70;99.90
51765;DHT22;37835;53.256;6.456;2023-08-08T08:23:12;16.70;99.90
51765;DHT22;37835;53.256;6.456;2023-08-08T08:25:38;16.70;99.90
51765;DHT22;37835;53.256;6.456;2023-08-08T08:28:03;16.70;99.90
51765;DHT22;37835;53.256;6.456;2023-08-08T08:30:29;16.70;99.90
51765;DHT22;37835;53.256;6.456;2023-08-08T08:32:55;16.70;99.90
51765;DHT22;37835;53.256;6.456;2023-08-08T08:35:22;16.60;99.90
51765;DHT22;37835;53.256;6.456;2023-08-08T08:37:48;16.60;99.90
51765;DHT22;37835;53.256;6.456;2023-08-08T08:40:14;16.50;99.90
51765;DHT22;37835;53.256;6.456;2023-08-08T08:42:40;16.40;99.90
51765;DHT22;37835;53.256;6.456;2023-08-08T08:45:09;16.40;99.90
51765;DHT22;37835;53.256;6.456;2023-08-08T08:47:36;16.30;99.90
51765;DHT22;37835;53.256;6.456;2023-08-08T08:50:02;16.40;99.90
51765;DHT22;37835;53.256;6.456;2023-08-08T08:52:29;16.40;99.90
51765;DHT22;37835;53.256;6.456;2023-08-08T08:54:55;16.50;99.90
51765;DHT22;37835;53.256;6.456;2023-08-08T08:57:22;16.50;99.90
51765;DHT22;37835;53.256;6.456;2023-08-08T08:59:49;16.50;99.90
51765;DHT22;37835;53.256;6.456;2023-08-08T09:02:15;16.50;99.90
51765;DHT22;37835;53.256;6.456;2023-08-08T09:04:40;16.60;99.90
51765;DHT22;37835;53.256;6.456;2023-08-08T09:07:07;16.70;99.90
51765;DHT22;37835;53.256;6.456;2023-08-08T09:09:32;16.80;99.90
51765;DHT22;37835;53.256;6.456;2023-08-08T09:11:58;16.80;99.90
51765;DHT22;37835;53.256;6.456;2023-08-08T09:14:25;16.70;99.90
51765;DHT22;37835;53.256;6.456;2023-08-08T09:16:53;16.60;99.90
51765;DHT22;37835;53.256;6.456;2023-08-08T09:19:19;16.60;99.90
51765;DHT22;37835;53.256;6.456;2023-08-08T09:21:45;16.70;99.90
51765;DHT22;37835;53.256;6.456;2023-08-08T09:24:11;16.80;99.90
51765;DHT22;37835;53.256;6.456;2023-08-08T09:26:39;17.00;99.90
51765;DHT22;37835;53.256;6.456;2023-08-08T09:29:05;17.10;99.90
51765;DHT22;37835;53.256;6.456;2023-08-08T09:31:31;17.20;99.90
51765;DHT22;37835;53.256;6.456;2023-08-08T09:33:58;17.30;99.90
51765;DHT22;37835;53.256;6.456;2023-08-08T09:36:24;17.30;99.90
51765;DHT22;37835;53.256;6.456;2023-08-08T09:38:51;17.20;99.90
51765;DHT22;37835;53.256;6.456;2023-08-08T09:41:17;17.20;99.90
51765;DHT22;37835;53.256;6.456;2023-08-08T09:43:44;17.30;99.90
51765;DHT22;37835;53.256;6.456;2023-08-08T09:46:10;17.30;99.90
51765;DHT22;37835;53.256;6.456;2023-08-08T09:48:38;17.40;99.90
51765;DHT22;37835;53.256;6.456;2023-08-08T09:51:04;17.40;99.90
51765;DHT22;37835;53.256;6.456;2023-08-08T09:53:31;17.40;99.90
51765;DHT22;37835;53.256;6.456;2023-08-08T09:55:57;17.30;99.90
51765;DHT22;37835;53.256;6.456;2023-08-08T09:58:23;17.20;99.90
51765;DHT22;37835;53.256;6.456;2023-08-08T10:00:49;16.90;99.90
51765;DHT22;37835;53.256;6.456;2023-08-08T10:03:16;16.70;99.90
51765;DHT22;37835;53.256;6.456;2023-08-08T10:05:45;16.40;99.90
51765;DHT22;37835;53.256;6.456;2023-08-08T10:08:14;16.20;99.90
51765;DHT22;37835;53.256;6.456;2023-08-08T10:10:42;16.00;99.90
51765;DHT22;37835;53.256;6.456;2023-08-08T10:13:10;15.80;99.90
51765;DHT22;37835;53.256;6.456;2023-08-08T10:15:39;15.70;99.90
51765;DHT22;37835;53.256;6.456;2023-08-08T10:18:06;15.60;99.90
51765;DHT22;37835;53.256;6.456;2023-08-08T10:20:32;15.70;99.90
51765;DHT22;37835;53.256;6.456;2023-08-08T10:22:59;15.70;99.90
51765;DHT22;37835;53.256;6.456;2023-08-08T10:25:27;15.70;99.90
51765;DHT22;37835;53.256;6.456;2023-08-08T10:28:08;15.80;99.90
51765;DHT22;37835;53.256;6.456;2023-08-08T10:30:46;16.00;99.90
51765;DHT22;37835;53.256;6.456;2023-08-08T10:33:16;16.20;99.90
51765;DHT22;37835;53.256;6.456;2023-08-08T10:36:03;16.50;99.90
51765;DHT22;37835;53.256;6.456;2023-08-08T10:38:49;16.70;99.90
51765;DHT22;37835;53.256;6.456;2023-08-08T10:41:21;16.90;99.90
51765;DHT22;37835;53.256;6.456;2023-08-08T10:43:56;17.10;99.90
51765;DHT22;37835;53.256;6.456;2023-08-08T10:48:53;17.30;99.90
51765;DHT22;37835;53.256;6.456;2023-08-08T10:51:19;17.40;99.90
51765;DHT22;37835;53.256;6.456;2023-08-08T10:53:45;17.50;99.90
51765;DHT22;37835;53.256;6.456;2023-08-08T10:56:13;17.60;99.90
51765;DHT22;37835;53.256;6.456;2023-08-08T10:58:40;17.70;99.90
51765;DHT22;37835;53.256;6.456;2023-08-08T11:01:07;17.90;99.90
51765;DHT22;37835;53.256;6.456;2023-08-08T11:03:37;17.90;99.90
51765;DHT22;37835;53.256;6.456;2023-08-08T11:06:06;17.90;99.90
51765;DHT22;37835;53.256;6.456;2023-08-08T11:08:32;18.00;99.90
51765;DHT22;37835;53.256;6.456;2023-08-08T11:10:59;18.10;99.90
51765;DHT22;37835;53.256;6.456;2023-08-08T11:13:25;18.20;99.90
51765;DHT22;37835;53.256;6.456;2023-08-08T11:15:51;18.30;99.90
51765;DHT22;37835;53.256;6.456;2023-08-08T11:18:16;18.30;99.90
51765;DHT22;37835;53.256;6.456;2023-08-08T11:20:42;18.20;99.90
51765;DHT22;37835;53.256;6.456;2023-08-08T11:23:09;18.20;99.90
51765;DHT22;37835;53.256;6.456;2023-08-08T11:25:36;18.10;99.90
51765;DHT22;37835;53.256;6.456;2023-08-08T11:28:03;18.20;99.90
51765;DHT22;37835;53.256;6.456;2023-08-08T11:30:37;18.20;99.90
51765;DHT22;37835;53.256;6.456;2023-08-08T11:33:03;18.30;99.90
51765;DHT22;37835;53.256;6.456;2023-08-08T11:35:29;18.40;99.90
51765;DHT22;37835;53.256;6.456;2023-08-08T11:37:57;18.40;99.90
51765;DHT22;37835;53.256;6.456;2023-08-08T11:40:25;18.50;99.90
51765;DHT22;37835;53.256;6.456;2023-08-08T11:42:51;18.60;99.90
51765;DHT22;37835;53.256;6.456;2023-08-08T11:45:17;18.60;99.90
51765;DHT22;37835;53.256;6.456;2023-08-08T11:47:43;18.50;99.90
51765;DHT22;37835;53.256;6.456;2023-08-08T11:50:10;18.60;99.90
51765;DHT22;37835;53.256;6.456;2023-08-08T11:52:44;18.60;99.90
51765;DHT22;37835;53.256;6.456;2023-08-08T11:55:11;18.60;99.90
51765;DHT22;37835;53.256;6.456;2023-08-08T11:57:37;18.50;99.90
51765;DHT22;37835;53.256;6.456;2023-08-08T12:00:05;18.50;99.90
51765;DHT22;37835;53.256;6.456;2023-08-08T12:02:33;18.50;99.90
51765;DHT22;37835;53.256;6.456;2023-08-08T12:05:07;18.50;99.90
51765;DHT22;37835;53.256;6.456;2023-08-08T12:07:33;18.50;99.90
51765;DHT22;37835;53.256;6.456;2023-08-08T12:10:04;18.50;99.90
51765;DHT22;37835;53.256;6.456;2023-08-08T12:12:32;18.40;99.90
51765;DHT22;37835;53.256;6.456;2023-08-08T12:15:05;18.20;99.90
51765;DHT22;37835;53.256;6.456;2023-08-08T12:17:31;18.10;99.90
51765;DHT22;37835;53.256;6.456;2023-08-08T12:19:59;18.00;99.90
51765;DHT22;37835;53.256;6.456;2023-08-08T12:22:25;18.00;99.90
51765;DHT22;37835;53.256;6.456;2023-08-08T12:24:51;18.00;99.90
51765;DHT22;37835;53.256;6.456;2023-08-08T12:27:17;18.00;99.90
51765;DHT22;37835;53.256;6.456;2023-08-08T12:29:42;18.10;99.90
51765;DHT22;37835;53.256;6.456;2023-08-08T12:32:08;18.10;99.90
51765;DHT22;37835;53.256;6.456;2023-08-08T12:34:34;18.10;99.90
51765;DHT22;37835;53.256;6.456;2023-08-08T12:37:01;18.00;99.90
51765;DHT22;37835;53.256;6.456;2023-08-08T12:39:26;18.10;99.90
51765;DHT22;37835;53.256;6.456;2023-08-08T12:41:52;18.10;99.90
51765;DHT22;37835;53.256;6.456;2023-08-08T12:44:18;18.00;99.90
51765;DHT22;37835;53.256;6.456;2023-08-08T12:46:43;18.00;99.90
51765;DHT22;37835;53.256;6.456;2023-08-08T12:49:09;18.10;99.90
51765;DHT22;37835;53.256;6.456;2023-08-08T12:51:34;18.20;99.90
51765;DHT22;37835;53.256;6.456;2023-08-08T12:54:00;18.10;99.90
51765;DHT22;37835;53.256;6.456;2023-08-08T12:56:25;18.10;99.90
51765;DHT22;37835;53.256;6.456;2023-08-08T12:58:51;18.00;99.90
51765;DHT22;37835;53.256;6.456;2023-08-08T13:01:17;18.00;99.90
51765;DHT22;37835;53.256;6.456;2023-08-08T13:03:42;17.90;99.90
51765;DHT22;37835;53.256;6.456;2023-08-08T13:06:08;18.00;99.90
51765;DHT22;37835;53.256;6.456;2023-08-08T13:08:36;17.90;99.90
51765;DHT22;37835;53.256;6.456;2023-08-08T13:11:02;18.00;99.90
51765;DHT22;37835;53.256;6.456;2023-08-08T13:13:27;18.00;99.90
51765;DHT22;37835;53.256;6.456;2023-08-08T13:15:53;18.10;99.90
51765;DHT22;37835;53.256;6.456;2023-08-08T13:18:19;18.00;99.90
51765;DHT22;37835;53.256;6.456;2023-08-08T13:20:44;17.90;99.90
51765;DHT22;37835;53.256;6.456;2023-08-08T13:23:10;17.50;99.90
51765;DHT22;37835;53.256;6.456;2023-08-08T13:25:36;18.00;99.90
51765;DHT22;37835;53.256;6.456;2023-08-08T13:28:02;18.20;99.90
51765;DHT22;37835;53.256;6.456;2023-08-08T13:30:29;18.20;99.90
51765;DHT22;37835;53.256;6.456;2023-08-08T13:32:54;18.50;99.90
51765;DHT22;37835;53.256;6.456;2023-08-08T13:35:20;18.30;99.90
51765;DHT22;37835;53.256;6.456;2023-08-08T13:37:46;18.40;99.90
51765;DHT22;37835;53.256;6.456;2023-08-08T13:40:16;18.60;99.90
51765;DHT22;37835;53.256;6.456;2023-08-08T13:42:42;18.80;99.90
51765;DHT22;37835;53.256;6.456;2023-08-08T13:45:08;18.90;99.90
51765;DHT22;37835;53.256;6.456;2023-08-08T13:47:34;19.00;99.90
51765;DHT22;37835;53.256;6.456;2023-08-08T13:50:01;19.00;99.90
51765;DHT22;37835;53.256;6.456;2023-08-08T13:52:26;19.00;99.90
51765;DHT22;37835;53.256;6.456;2023-08-08T13:54:52;18.90;99.90
51765;DHT22;37835;53.256;6.456;2023-08-08T13:57:17;18.80;99.90
51765;DHT22;37835;53.256;6.456;2023-08-08T13:59:43;18.70;99.90
51765;DHT22;37835;53.256;6.456;2023-08-08T14:02:08;18.60;99.90
51765;DHT22;37835;53.256;6.456;2023-08-08T14:04:34;18.50;99.90
51765;DHT22;37835;53.256;6.456;2023-08-08T14:06:59;18.30;99.90
51765;DHT22;37835;53.256;6.456;2023-08-08T14:09:25;18.30;99.90
51765;DHT22;37835;53.256;6.456;2023-08-08T14:11:51;18.20;99.90
51765;DHT22;37835;53.256;6.456;2023-08-08T14:14:16;18.20;99.90
51765;DHT22;37835;53.256;6.456;2023-08-08T14:16:42;18.20;99.90
51765;DHT22;37835;53.256;6.456;2023-08-08T14:19:07;18.20;99.90
51765;DHT22;37835;53.256;6.456;2023-08-08T14:21:33;18.20;99.90
51765;DHT22;37835;53.256;6.456;2023-08-08T14:23:59;18.10;99.90
51765;DHT22;37835;53.256;6.456;2023-08-08T14:26:24;18.10;99.90
51765;DHT22;37835;53.256;6.456;2023-08-08T14:28:50;18.20;99.90
51765;DHT22;37835;53.256;6.456;2023-08-08T14:31:15;18.30;99.90
51765;DHT22;37835;53.256;6.456;2023-08-08T14:33:41;18.30;99.90
51765;DHT22;37835;53.256;6.456;2023-08-08T14:36:07;18.30;99.90
51765;DHT22;37835;53.256;6.456;2023-08-08T14:38:35;18.30;99.90
51765;DHT22;37835;53.256;6.456;2023-08-08T14:41:02;18.10;99.90
51765;DHT22;37835;53.256;6.456;2023-08-08T14:43:29;18.00;99.90
51765;DHT22;37835;53.256;6.456;2023-08-08T14:45:54;17.90;99.90
51765;DHT22;37835;53.256;6.456;2023-08-08T14:48:20;18.00;99.90
51765;DHT22;37835;53.256;6.456;2023-08-08T14:50:46;18.00;99.90
51765;DHT22;37835;53.256;6.456;2023-08-08T14:53:11;18.20;99.90
51765;DHT22;37835;53.256;6.456;2023-08-08T14:55:37;18.20;99.90
51765;DHT22;37835;53.256;6.456;2023-08-08T14:58:03;18.30;99.90
51765;DHT22;37835;53.256;6.456;2023-08-08T15:00:28;18.40;99.90
51765;DHT22;37835;53.256;6.456;2023-08-08T15:02:54;18.50;99.90
51765;DHT22;37835;53.256;6.456;2023-08-08T15:05:19;18.50;99.90
51765;DHT22;37835;53.256;6.456;2023-08-08T15:07:45;18.50;99.90
51765;DHT22;37835;53.256;6.456;2023-08-08T15:10:11;18.50;99.90
51765;DHT22;37835;53.256;6.456;2023-08-08T15:12:36;18.50;99.90
51765;DHT22;37835;53.256;6.456;2023-08-08T15:15:02;18.50;99.90
51765;DHT22;37835;53.256;6.456;2023-08-08T15:17:31;18.40;99.90
51765;DHT22;37835;53.256;6.456;2023-08-08T15:19:56;18.40;99.90
51765;DHT22;37835;53.256;6.456;2023-08-08T15:22:22;18.30;99.90
51765;DHT22;37835;53.256;6.456;2023-08-08T15:24:47;18.30;99.90
51765;DHT22;37835;53.256;6.456;2023-08-08T15:27:13;18.20;99.90